Terminal Aerodrome Forecast
Issued by NWS Upton, NY

Home | Current Version | Previous Version | Text Only | Print | Product List | Glossary On
Versions: 1 2 3 4 5 6 7 8 9 10 11 12 13 14 15 16 17 18 19 20 21 22 23 24 25 26 27 28 29 30 31
000
FTUS41 KOKX 290500
TAFISP
TAF
KISP 290520Z 2906/3006 31004KT P6SM SCT100 SCT250
     FM291700 19006KT P6SM SCT040 BKN070
     FM292100 18007KT P6SM SCT040 BKN070
     FM300300 19008KT P6SM SCT030 BKN070=

USA.gov is the U.S. government's official web portal to all federal, state and local government web resources and services.